sensor_id;sensor_type;location;lat;lon;timestamp;P1;durP1;ratioP1;P2;durP2;ratioP2
2672;SDS011;1346;51.558;6.996;2022-10-03T00:04:23;20.30;;;8.18;;
2672;SDS011;1346;51.558;6.996;2022-10-03T00:07:14;21.20;;;9.25;;
2672;SDS011;1346;51.558;6.996;2022-10-03T00:09:57;15.75;;;7.65;;
2672;SDS011;1346;51.558;6.996;2022-10-03T00:12:44;24.17;;;9.35;;
2672;SDS011;1346;51.558;6.996;2022-10-03T00:15:25;21.02;;;9.18;;
2672;SDS011;1346;51.558;6.996;2022-10-03T00:17:58;19.70;;;7.82;;
2672;SDS011;1346;51.558;6.996;2022-10-03T00:20:43;21.70;;;7.80;;
2672;SDS011;1346;51.558;6.996;2022-10-03T00:23:27;18.33;;;8.70;;
2672;SDS011;1346;51.558;6.996;2022-10-03T00:26:05;22.23;;;9.23;;
2672;SDS011;1346;51.558;6.996;2022-10-03T00:28:57;11.25;;;8.25;;
2672;SDS011;1346;51.558;6.996;2022-10-03T00:31:52;14.13;;;7.55;;
2672;SDS011;1346;51.558;6.996;2022-10-03T00:34:33;13.40;;;7.20;;
2672;SDS011;1346;51.558;6.996;2022-10-03T00:37:19;17.60;;;7.55;;
2672;SDS011;1346;51.558;6.996;2022-10-03T00:40:05;14.20;;;7.78;;
2672;SDS011;1346;51.558;6.996;2022-10-03T00:43:12;14.35;;;7.97;;
2672;SDS011;1346;51.558;6.996;2022-10-03T00:49:31;14.02;;;7.45;;
2672;SDS011;1346;51.558;6.996;2022-10-03T00:52:28;17.90;;;8.45;;
2672;SDS011;1346;51.558;6.996;2022-10-03T00:55:45;15.25;;;8.30;;
2672;SDS011;1346;51.558;6.996;2022-10-03T00:58:34;13.23;;;7.13;;
2672;SDS011;1346;51.558;6.996;2022-10-03T01:01:22;17.27;;;7.88;;
2672;SDS011;1346;51.558;6.996;2022-10-03T01:04:02;15.27;;;8.15;;
2672;SDS011;1346;51.558;6.996;2022-10-03T01:06:50;18.33;;;8.75;;
2672;SDS011;1346;51.558;6.996;2022-10-03T01:09:35;22.35;;;8.23;;
2672;SDS011;1346;51.558;6.996;2022-10-03T01:12:17;14.27;;;8.50;;
2672;SDS011;1346;51.558;6.996;2022-10-03T01:15:05;19.13;;;8.88;;
2672;SDS011;1346;51.558;6.996;2022-10-03T01:17:47;16.30;;;9.23;;
2672;SDS011;1346;51.558;6.996;2022-10-03T01:20:34;28.83;;;10.93;;
2672;SDS011;1346;51.558;6.996;2022-10-03T01:23:17;16.60;;;11.70;;
2672;SDS011;1346;51.558;6.996;2022-10-03T01:26:38;22.38;;;11.10;;
2672;SDS011;1346;51.558;6.996;2022-10-03T01:29:25;23.67;;;10.43;;
2672;SDS011;1346;51.558;6.996;2022-10-03T01:32:22;21.23;;;11.30;;
2672;SDS011;1346;51.558;6.996;2022-10-03T01:34:59;23.90;;;10.70;;
2672;SDS011;1346;51.558;6.996;2022-10-03T01:37:41;16.25;;;9.90;;
2672;SDS011;1346;51.558;6.996;2022-10-03T01:40:20;25.92;;;9.13;;
2672;SDS011;1346;51.558;6.996;2022-10-03T01:43:04;11.90;;;7.93;;
2672;SDS011;1346;51.558;6.996;2022-10-03T01:45:43;14.00;;;7.90;;
2672;SDS011;1346;51.558;6.996;2022-10-03T01:48:21;14.80;;;7.00;;
2672;SDS011;1346;51.558;6.996;2022-10-03T01:51:00;13.40;;;7.18;;
2672;SDS011;1346;51.558;6.996;2022-10-03T01:53:39;13.00;;;8.32;;
2672;SDS011;1346;51.558;6.996;2022-10-03T01:56:20;12.98;;;8.07;;
2672;SDS011;1346;51.558;6.996;2022-10-03T01:58:59;15.55;;;7.85;;
2672;SDS011;1346;51.558;6.996;2022-10-03T02:01:35;19.67;;;7.70;;
2672;SDS011;1346;51.558;6.996;2022-10-03T02:04:14;15.27;;;7.10;;
2672;SDS011;1346;51.558;6.996;2022-10-03T02:06:58;17.05;;;8.60;;
2672;SDS011;1346;51.558;6.996;2022-10-03T02:09:35;21.35;;;8.20;;
2672;SDS011;1346;51.558;6.996;2022-10-03T02:12:13;10.52;;;7.20;;
2672;SDS011;1346;51.558;6.996;2022-10-03T02:14:53;11.70;;;7.22;;
2672;SDS011;1346;51.558;6.996;2022-10-03T02:17:27;18.52;;;6.93;;
2672;SDS011;1346;51.558;6.996;2022-10-03T02:20:11;13.13;;;7.15;;
2672;SDS011;1346;51.558;6.996;2022-10-03T02:22:50;14.65;;;8.38;;
2672;SDS011;1346;51.558;6.996;2022-10-03T02:25:20;12.07;;;7.53;;
2672;SDS011;1346;51.558;6.996;2022-10-03T02:31:34;13.75;;;7.75;;
2672;SDS011;1346;51.558;6.996;2022-10-03T02:34:34;12.82;;;7.35;;
2672;SDS011;1346;51.558;6.996;2022-10-03T02:37:45;13.13;;;7.15;;
2672;SDS011;1346;51.558;6.996;2022-10-03T02:40:38;13.85;;;7.70;;
2672;SDS011;1346;51.558;6.996;2022-10-03T02:43:30;15.90;;;8.05;;
2672;SDS011;1346;51.558;6.996;2022-10-03T02:50:10;14.35;;;8.40;;
2672;SDS011;1346;51.558;6.996;2022-10-03T02:53:32;11.63;;;7.20;;
2672;SDS011;1346;51.558;6.996;2022-10-03T02:56:47;16.98;;;7.90;;
2672;SDS011;1346;51.558;6.996;2022-10-03T03:00:11;15.60;;;7.35;;
2672;SDS011;1346;51.558;6.996;2022-10-03T03:09:19;12.93;;;7.03;;
2672;SDS011;1346;51.558;6.996;2022-10-03T03:12:20;15.40;;;6.68;;
2672;SDS011;1346;51.558;6.996;2022-10-03T03:18:38;14.23;;;8.20;;
2672;SDS011;1346;51.558;6.996;2022-10-03T03:21:17;15.75;;;7.55;;
2672;SDS011;1346;51.558;6.996;2022-10-03T03:24:09;16.88;;;7.03;;
2672;SDS011;1346;51.558;6.996;2022-10-03T03:26:55;14.10;;;7.97;;
2672;SDS011;1346;51.558;6.996;2022-10-03T03:29:53;15.45;;;6.75;;
2672;SDS011;1346;51.558;6.996;2022-10-03T03:32:30;14.32;;;7.60;;
2672;SDS011;1346;51.558;6.996;2022-10-03T03:35:16;9.95;;;6.90;;
2672;SDS011;1346;51.558;6.996;2022-10-03T03:38:00;20.35;;;7.70;;
2672;SDS011;1346;51.558;6.996;2022-10-03T03:40:44;16.27;;;8.40;;
2672;SDS011;1346;51.558;6.996;2022-10-03T03:43:30;10.65;;;6.32;;
2672;SDS011;1346;51.558;6.996;2022-10-03T03:46:13;11.57;;;7.20;;
2672;SDS011;1346;51.558;6.996;2022-10-03T03:49:03;12.88;;;6.70;;
2672;SDS011;1346;51.558;6.996;2022-10-03T03:51:57;14.15;;;6.80;;
2672;SDS011;1346;51.558;6.996;2022-10-03T03:57:52;14.82;;;7.20;;
2672;SDS011;1346;51.558;6.996;2022-10-03T04:00:53;10.43;;;7.63;;
2672;SDS011;1346;51.558;6.996;2022-10-03T04:03:41;11.77;;;7.05;;
2672;SDS011;1346;51.558;6.996;2022-10-03T04:12:31;11.98;;;7.38;;
2672;SDS011;1346;51.558;6.996;2022-10-03T04:15:19;16.73;;;7.95;;
2672;SDS011;1346;51.558;6.996;2022-10-03T04:18:06;12.13;;;6.95;;
2672;SDS011;1346;51.558;6.996;2022-10-03T04:21:15;16.80;;;7.25;;
2672;SDS011;1346;51.558;6.996;2022-10-03T04:24:21;16.70;;;7.60;;
2672;SDS011;1346;51.558;6.996;2022-10-03T04:27:30;14.80;;;6.85;;
2672;SDS011;1346;51.558;6.996;2022-10-03T04:30:20;13.70;;;7.30;;
2672;SDS011;1346;51.558;6.996;2022-10-03T04:32:58;16.90;;;8.30;;
2672;SDS011;1346;51.558;6.996;2022-10-03T04:35:48;11.77;;;6.63;;
2672;SDS011;1346;51.558;6.996;2022-10-03T04:38:47;14.90;;;7.72;;
2672;SDS011;1346;51.558;6.996;2022-10-03T04:41:25;14.50;;;7.38;;
2672;SDS011;1346;51.558;6.996;2022-10-03T04:44:03;16.23;;;8.15;;
2672;SDS011;1346;51.558;6.996;2022-10-03T04:46:49;10.93;;;7.22;;
2672;SDS011;1346;51.558;6.996;2022-10-03T04:49:22;11.73;;;7.88;;
2672;SDS011;1346;51.558;6.996;2022-10-03T04:51:59;14.43;;;7.80;;
2672;SDS011;1346;51.558;6.996;2022-10-03T04:54:35;11.82;;;7.90;;
2672;SDS011;1346;51.558;6.996;2022-10-03T04:57:16;12.15;;;7.00;;
2672;SDS011;1346;51.558;6.996;2022-10-03T04:59:55;13.25;;;7.75;;
2672;SDS011;1346;51.558;6.996;2022-10-03T05:02:43;16.95;;;7.60;;
2672;SDS011;1346;51.558;6.996;2022-10-03T05:05:19;20.55;;;8.25;;
2672;SDS011;1346;51.558;6.996;2022-10-03T05:07:55;12.05;;;7.47;;
2672;SDS011;1346;51.558;6.996;2022-10-03T05:13:43;13.25;;;6.90;;
2672;SDS011;1346;51.558;6.996;2022-10-03T05:16:24;20.58;;;7.97;;
2672;SDS011;1346;51.558;6.996;2022-10-03T05:19:08;16.05;;;7.90;;
2672;SDS011;1346;51.558;6.996;2022-10-03T05:22:00;12.88;;;6.95;;
2672;SDS011;1346;51.558;6.996;2022-10-03T05:24:37;15.48;;;7.57;;
2672;SDS011;1346;51.558;6.996;2022-10-03T05:27:13;17.90;;;7.32;;
2672;SDS011;1346;51.558;6.996;2022-10-03T05:29:50;12.60;;;8.18;;
2672;SDS011;1346;51.558;6.996;2022-10-03T05:32:29;12.80;;;7.38;;
2672;SDS011;1346;51.558;6.996;2022-10-03T05:35:12;17.90;;;8.00;;
2672;SDS011;1346;51.558;6.996;2022-10-03T05:38:07;15.48;;;8.35;;
2672;SDS011;1346;51.558;6.996;2022-10-03T05:41:02;16.88;;;9.43;;
2672;SDS011;1346;51.558;6.996;2022-10-03T05:43:43;18.75;;;8.93;;
2672;SDS011;1346;51.558;6.996;2022-10-03T05:46:27;12.45;;;7.90;;
2672;SDS011;1346;51.558;6.996;2022-10-03T05:49:40;14.75;;;8.85;;
2672;SDS011;1346;51.558;6.996;2022-10-03T05:52:47;15.98;;;9.07;;
2672;SDS011;1346;51.558;6.996;2022-10-03T05:55:28;15.80;;;8.52;;
2672;SDS011;1346;51.558;6.996;2022-10-03T06:01:16;13.55;;;7.97;;
2672;SDS011;1346;51.558;6.996;2022-10-03T06:07:28;16.90;;;9.38;;
2672;SDS011;1346;51.558;6.996;2022-10-03T06:10:17;30.42;;;12.68;;
2672;SDS011;1346;51.558;6.996;2022-10-03T06:13:09;25.77;;;12.80;;
2672;SDS011;1346;51.558;6.996;2022-10-03T06:15:55;21.77;;;10.75;;
2672;SDS011;1346;51.558;6.996;2022-10-03T06:21:48;16.77;;;9.93;;
2672;SDS011;1346;51.558;6.996;2022-10-03T06:28:19;21.33;;;10.43;;
2672;SDS011;1346;51.558;6.996;2022-10-03T06:34:45;14.77;;;10.25;;
2672;SDS011;1346;51.558;6.996;2022-10-03T06:38:08;14.15;;;9.80;;
2672;SDS011;1346;51.558;6.996;2022-10-03T06:41:31;18.17;;;10.73;;
2672;SDS011;1346;51.558;6.996;2022-10-03T06:48:28;17.90;;;10.00;;
2672;SDS011;1346;51.558;6.996;2022-10-03T06:51:42;12.95;;;9.90;;
2672;SDS011;1346;51.558;6.996;2022-10-03T06:54:33;14.55;;;9.60;;
2672;SDS011;1346;51.558;6.996;2022-10-03T07:01:16;15.13;;;11.32;;
2672;SDS011;1346;51.558;6.996;2022-10-03T07:04:20;17.98;;;12.45;;
2672;SDS011;1346;51.558;6.996;2022-10-03T07:07:18;27.77;;;14.93;;
2672;SDS011;1346;51.558;6.996;2022-10-03T07:10:30;24.33;;;13.75;;
2672;SDS011;1346;51.558;6.996;2022-10-03T07:13:30;19.42;;;11.75;;
2672;SDS011;1346;51.558;6.996;2022-10-03T07:16:45;27.23;;;15.27;;
2672;SDS011;1346;51.558;6.996;2022-10-03T07:20:09;24.60;;;14.07;;
2672;SDS011;1346;51.558;6.996;2022-10-03T07:23:06;24.90;;;14.38;;
2672;SDS011;1346;51.558;6.996;2022-10-03T07:29:14;20.73;;;12.93;;
2672;SDS011;1346;51.558;6.996;2022-10-03T07:31:57;24.10;;;13.10;;
2672;SDS011;1346;51.558;6.996;2022-10-03T07:35:04;20.60;;;14.60;;
2672;SDS011;1346;51.558;6.996;2022-10-03T07:48:17;34.35;;;16.33;;
2672;SDS011;1346;51.558;6.996;2022-10-03T07:51:11;24.55;;;13.55;;
2672;SDS011;1346;51.558;6.996;2022-10-03T07:53:59;23.70;;;12.63;;
2672;SDS011;1346;51.558;6.996;2022-10-03T07:57:05;27.98;;;14.68;;
2672;SDS011;1346;51.558;6.996;2022-10-03T08:00:17;24.23;;;13.15;;
2672;SDS011;1346;51.558;6.996;2022-10-03T08:06:20;27.27;;;14.87;;
2672;SDS011;1346;51.558;6.996;2022-10-03T08:09:05;19.90;;;13.37;;
2672;SDS011;1346;51.558;6.996;2022-10-03T08:15:21;28.17;;;13.60;;
2672;SDS011;1346;51.558;6.996;2022-10-03T08:18:14;20.73;;;11.17;;
2672;SDS011;1346;51.558;6.996;2022-10-03T08:21:21;18.07;;;10.80;;
2672;SDS011;1346;51.558;6.996;2022-10-03T08:26:57;18.00;;;10.90;;
2672;SDS011;1346;51.558;6.996;2022-10-03T08:29:48;25.33;;;11.80;;
2672;SDS011;1346;51.558;6.996;2022-10-03T08:32:59;22.23;;;10.27;;
2672;SDS011;1346;51.558;6.996;2022-10-03T08:36:06;19.23;;;10.67;;
2672;SDS011;1346;51.558;6.996;2022-10-03T08:39:08;30.17;;;10.47;;
2672;SDS011;1346;51.558;6.996;2022-10-03T08:41:48;19.63;;;10.30;;
2672;SDS011;1346;51.558;6.996;2022-10-03T08:44:56;24.30;;;11.40;;
2672;SDS011;1346;51.558;6.996;2022-10-03T08:48:05;21.80;;;11.30;;
2672;SDS011;1346;51.558;6.996;2022-10-03T08:58:16;14.53;;;9.03;;
2672;SDS011;1346;51.558;6.996;2022-10-03T09:01:33;22.33;;;10.00;;
2672;SDS011;1346;51.558;6.996;2022-10-03T09:04:37;14.87;;;8.80;;
2672;SDS011;1346;51.558;6.996;2022-10-03T09:11:33;15.83;;;8.73;;
2672;SDS011;1346;51.558;6.996;2022-10-03T09:14:38;20.47;;;8.87;;
2672;SDS011;1346;51.558;6.996;2022-10-03T09:20:38;14.80;;;7.30;;
2672;SDS011;1346;51.558;6.996;2022-10-03T09:26:47;16.07;;;6.90;;
2672;SDS011;1346;51.558;6.996;2022-10-03T09:36:01;19.93;;;8.00;;
2672;SDS011;1346;51.558;6.996;2022-10-03T09:39:23;17.30;;;6.93;;
2672;SDS011;1346;51.558;6.996;2022-10-03T09:46:05;12.90;;;6.47;;
2672;SDS011;1346;51.558;6.996;2022-10-03T09:49:13;15.73;;;6.13;;
2672;SDS011;1346;51.558;6.996;2022-10-03T09:52:09;20.37;;;7.43;;
2672;SDS011;1346;51.558;6.996;2022-10-03T09:54:57;17.60;;;5.90;;
2672;SDS011;1346;51.558;6.996;2022-10-03T09:57:55;13.43;;;5.30;;
2672;SDS011;1346;51.558;6.996;2022-10-03T10:00:59;15.70;;;5.33;;
2672;SDS011;1346;51.558;6.996;2022-10-03T10:04:07;14.63;;;4.40;;
2672;SDS011;1346;51.558;6.996;2022-10-03T10:07:36;7.00;;;4.20;;
2672;SDS011;1346;51.558;6.996;2022-10-03T10:14:12;11.43;;;3.97;;
2672;SDS011;1346;51.558;6.996;2022-10-03T10:23:48;8.50;;;2.17;;
2672;SDS011;1346;51.558;6.996;2022-10-03T10:36:37;7.27;;;1.43;;
2672;SDS011;1346;51.558;6.996;2022-10-03T10:40:13;6.43;;;1.47;;
2672;SDS011;1346;51.558;6.996;2022-10-03T10:43:26;5.87;;;2.27;;
2672;SDS011;1346;51.558;6.996;2022-10-03T10:47:08;4.03;;;1.63;;
2672;SDS011;1346;51.558;6.996;2022-10-03T10:57:24;9.50;;;2.10;;
2672;SDS011;1346;51.558;6.996;2022-10-03T11:00:23;6.83;;;2.00;;
2672;SDS011;1346;51.558;6.996;2022-10-03T11:06:51;10.03;;;1.47;;
2672;SDS011;1346;51.558;6.996;2022-10-03T11:09:42;11.27;;;1.90;;
2672;SDS011;1346;51.558;6.996;2022-10-03T11:13:22;5.30;;;1.80;;
2672;SDS011;1346;51.558;6.996;2022-10-03T11:19:49;8.70;;;1.77;;
2672;SDS011;1346;51.558;6.996;2022-10-03T11:33:17;8.53;;;1.20;;
2672;SDS011;1346;51.558;6.996;2022-10-03T11:36:30;2.47;;;0.90;;
2672;SDS011;1346;51.558;6.996;2022-10-03T11:39:25;4.20;;;0.90;;
2672;SDS011;1346;51.558;6.996;2022-10-03T11:42:05;3.70;;;1.03;;
2672;SDS011;1346;51.558;6.996;2022-10-03T11:44:45;6.57;;;1.30;;
2672;SDS011;1346;51.558;6.996;2022-10-03T11:47:38;7.40;;;1.97;;
2672;SDS011;1346;51.558;6.996;2022-10-03T11:50:25;7.70;;;1.43;;
2672;SDS011;1346;51.558;6.996;2022-10-03T11:53:15;6.93;;;1.47;;
2672;SDS011;1346;51.558;6.996;2022-10-03T11:56:03;5.77;;;1.53;;
2672;SDS011;1346;51.558;6.996;2022-10-03T11:58:54;5.30;;;1.70;;
2672;SDS011;1346;51.558;6.996;2022-10-03T12:01:51;9.27;;;1.50;;
2672;SDS011;1346;51.558;6.996;2022-10-03T12:04:38;8.90;;;1.70;;
2672;SDS011;1346;51.558;6.996;2022-10-03T12:07:19;5.00;;;1.57;;
2672;SDS011;1346;51.558;6.996;2022-10-03T12:10:35;5.97;;;2.00;;
2672;SDS011;1346;51.558;6.996;2022-10-03T12:13:12;4.20;;;1.40;;
2672;SDS011;1346;51.558;6.996;2022-10-03T12:15:44;10.33;;;2.07;;
2672;SDS011;1346;51.558;6.996;2022-10-03T12:18:16;9.77;;;1.50;;
2672;SDS011;1346;51.558;6.996;2022-10-03T12:21:07;6.73;;;1.57;;
2672;SDS011;1346;51.558;6.996;2022-10-03T12:23:49;3.90;;;1.47;;
2672;SDS011;1346;51.558;6.996;2022-10-03T12:26:32;4.00;;;1.37;;
2672;SDS011;1346;51.558;6.996;2022-10-03T12:29:16;3.93;;;1.17;;
2672;SDS011;1346;51.558;6.996;2022-10-03T12:31:50;10.20;;;1.67;;
2672;SDS011;1346;51.558;6.996;2022-10-03T12:34:36;7.60;;;1.57;;
2672;SDS011;1346;51.558;6.996;2022-10-03T12:37:20;4.97;;;1.20;;
2672;SDS011;1346;51.558;6.996;2022-10-03T12:40:13;3.53;;;1.20;;
2672;SDS011;1346;51.558;6.996;2022-10-03T12:42:52;3.37;;;1.10;;
2672;SDS011;1346;51.558;6.996;2022-10-03T12:45:31;4.53;;;1.50;;
2672;SDS011;1346;51.558;6.996;2022-10-03T12:48:11;7.30;;;1.07;;
2672;SDS011;1346;51.558;6.996;2022-10-03T12:51:05;5.93;;;1.90;;
2672;SDS011;1346;51.558;6.996;2022-10-03T12:53:46;9.13;;;1.50;;
2672;SDS011;1346;51.558;6.996;2022-10-03T12:56:28;7.80;;;1.40;;
2672;SDS011;1346;51.558;6.996;2022-10-03T12:59:10;13.03;;;2.27;;
2672;SDS011;1346;51.558;6.996;2022-10-03T13:01:59;7.00;;;1.83;;
2672;SDS011;1346;51.558;6.996;2022-10-03T13:05:14;7.50;;;1.53;;
2672;SDS011;1346;51.558;6.996;2022-10-03T13:08:02;7.20;;;1.67;;
2672;SDS011;1346;51.558;6.996;2022-10-03T13:10:42;7.53;;;1.67;;
2672;SDS011;1346;51.558;6.996;2022-10-03T13:13:18;7.27;;;1.57;;
2672;SDS011;1346;51.558;6.996;2022-10-03T13:15:58;3.13;;;1.27;;
2672;SDS011;1346;51.558;6.996;2022-10-03T13:18:56;4.57;;;1.30;;
2672;SDS011;1346;51.558;6.996;2022-10-03T13:21:46;6.30;;;1.40;;
2672;SDS011;1346;51.558;6.996;2022-10-03T13:24:28;3.73;;;1.13;;
2672;SDS011;1346;51.558;6.996;2022-10-03T13:27:05;8.50;;;1.60;;
2672;SDS011;1346;51.558;6.996;2022-10-03T13:29:52;9.23;;;1.70;;
2672;SDS011;1346;51.558;6.996;2022-10-03T13:32:28;5.70;;;1.43;;
2672;SDS011;1346;51.558;6.996;2022-10-03T13:35:02;6.13;;;1.50;;
2672;SDS011;1346;51.558;6.996;2022-10-03T13:38:10;7.60;;;1.30;;
2672;SDS011;1346;51.558;6.996;2022-10-03T13:41:13;5.07;;;1.40;;
2672;SDS011;1346;51.558;6.996;2022-10-03T13:43:54;6.60;;;1.53;;
2672;SDS011;1346;51.558;6.996;2022-10-03T13:46:30;4.83;;;1.23;;
2672;SDS011;1346;51.558;6.996;2022-10-03T13:49:10;4.63;;;1.60;;
2672;SDS011;1346;51.558;6.996;2022-10-03T13:51:45;6.70;;;1.30;;
2672;SDS011;1346;51.558;6.996;2022-10-03T13:54:24;6.00;;;1.30;;
2672;SDS011;1346;51.558;6.996;2022-10-03T13:57:19;6.30;;;1.73;;
2672;SDS011;1346;51.558;6.996;2022-10-03T13:59:55;3.30;;;1.20;;
2672;SDS011;1346;51.558;6.996;2022-10-03T14:02:38;4.23;;;1.30;;
2672;SDS011;1346;51.558;6.996;2022-10-03T14:05:19;3.67;;;1.20;;
2672;SDS011;1346;51.558;6.996;2022-10-03T14:08:15;3.57;;;1.17;;
2672;SDS011;1346;51.558;6.996;2022-10-03T14:11:21;4.07;;;1.07;;
2672;SDS011;1346;51.558;6.996;2022-10-03T14:14:07;4.03;;;1.30;;
2672;SDS011;1346;51.558;6.996;2022-10-03T14:17:00;10.23;;;1.67;;
2672;SDS011;1346;51.558;6.996;2022-10-03T14:19:39;4.70;;;1.30;;
2672;SDS011;1346;51.558;6.996;2022-10-03T14:22:25;4.80;;;1.27;;
2672;SDS011;1346;51.558;6.996;2022-10-03T14:25:05;9.00;;;1.10;;
2672;SDS011;1346;51.558;6.996;2022-10-03T14:27:46;7.97;;;2.00;;
2672;SDS011;1346;51.558;6.996;2022-10-03T14:30:20;3.87;;;1.20;;
2672;SDS011;1346;51.558;6.996;2022-10-03T14:32:55;4.37;;;1.27;;
2672;SDS011;1346;51.558;6.996;2022-10-03T14:35:40;9.63;;;1.40;;
2672;SDS011;1346;51.558;6.996;2022-10-03T14:38:26;4.83;;;1.03;;
2672;SDS011;1346;51.558;6.996;2022-10-03T14:41:29;8.60;;;1.57;;
2672;SDS011;1346;51.558;6.996;2022-10-03T14:44:12;9.57;;;1.30;;
2672;SDS011;1346;51.558;6.996;2022-10-03T14:46:46;2.90;;;0.87;;
2672;SDS011;1346;51.558;6.996;2022-10-03T14:49:21;4.00;;;1.50;;
2672;SDS011;1346;51.558;6.996;2022-10-03T14:51:54;2.40;;;1.17;;
2672;SDS011;1346;51.558;6.996;2022-10-03T14:54:27;7.07;;;1.63;;
2672;SDS011;1346;51.558;6.996;2022-10-03T14:57:01;2.63;;;1.00;;
2672;SDS011;1346;51.558;6.996;2022-10-03T14:59:48;6.30;;;1.20;;
2672;SDS011;1346;51.558;6.996;2022-10-03T15:02:24;4.30;;;1.20;;
2672;SDS011;1346;51.558;6.996;2022-10-03T15:04:56;2.90;;;1.07;;
2672;SDS011;1346;51.558;6.996;2022-10-03T15:07:35;5.37;;;1.30;;
2672;SDS011;1346;51.558;6.996;2022-10-03T15:10:06;2.83;;;0.80;;
2672;SDS011;1346;51.558;6.996;2022-10-03T15:12:39;4.20;;;1.53;;
2672;SDS011;1346;51.558;6.996;2022-10-03T15:15:12;5.30;;;1.30;;
2672;SDS011;1346;51.558;6.996;2022-10-03T15:17:45;2.93;;;0.87;;
2672;SDS011;1346;51.558;6.996;2022-10-03T15:20:15;1.80;;;0.90;;
2672;SDS011;1346;51.558;6.996;2022-10-03T15:22:47;3.93;;;1.00;;
2672;SDS011;1346;51.558;6.996;2022-10-03T15:25:18;3.93;;;1.00;;
2672;SDS011;1346;51.558;6.996;2022-10-03T15:27:51;3.47;;;1.00;;
2672;SDS011;1346;51.558;6.996;2022-10-03T15:30:23;6.30;;;1.67;;
2672;SDS011;1346;51.558;6.996;2022-10-03T15:32:55;4.90;;;1.20;;
2672;SDS011;1346;51.558;6.996;2022-10-03T15:35:32;6.93;;;1.37;;
2672;SDS011;1346;51.558;6.996;2022-10-03T15:38:08;7.07;;;1.80;;
2672;SDS011;1346;51.558;6.996;2022-10-03T15:40:38;4.13;;;1.50;;
2672;SDS011;1346;51.558;6.996;2022-10-03T15:43:20;5.07;;;1.67;;
2672;SDS011;1346;51.558;6.996;2022-10-03T15:45:57;4.43;;;1.57;;
2672;SDS011;1346;51.558;6.996;2022-10-03T15:48:29;3.60;;;1.40;;
2672;SDS011;1346;51.558;6.996;2022-10-03T15:50:57;6.17;;;2.27;;
2672;SDS011;1346;51.558;6.996;2022-10-03T15:53:27;8.30;;;2.30;;
2672;SDS011;1346;51.558;6.996;2022-10-03T15:55:59;4.40;;;2.07;;
2672;SDS011;1346;51.558;6.996;2022-10-03T15:58:36;4.77;;;2.50;;
2672;SDS011;1346;51.558;6.996;2022-10-03T16:01:10;5.13;;;2.40;;
2672;SDS011;1346;51.558;6.996;2022-10-03T16:03:44;5.33;;;1.97;;
2672;SDS011;1346;51.558;6.996;2022-10-03T16:06:16;2.90;;;1.30;;
2672;SDS011;1346;51.558;6.996;2022-10-03T16:08:53;6.20;;;1.30;;
2672;SDS011;1346;51.558;6.996;2022-10-03T16:11:26;5.90;;;1.60;;
2672;SDS011;1346;51.558;6.996;2022-10-03T16:14:11;9.47;;;2.17;;
2672;SDS011;1346;51.558;6.996;2022-10-03T16:16:49;6.73;;;2.03;;
2672;SDS011;1346;51.558;6.996;2022-10-03T16:19:32;3.73;;;1.17;;
2672;SDS011;1346;51.558;6.996;2022-10-03T16:22:07;5.97;;;1.90;;
2672;SDS011;1346;51.558;6.996;2022-10-03T16:24:44;3.30;;;1.00;;
2672;SDS011;1346;51.558;6.996;2022-10-03T16:27:30;5.13;;;1.07;;
2672;SDS011;1346;51.558;6.996;2022-10-03T16:30:13;3.47;;;1.20;;
2672;SDS011;1346;51.558;6.996;2022-10-03T16:32:47;6.73;;;1.53;;
2672;SDS011;1346;51.558;6.996;2022-10-03T16:35:31;4.17;;;1.43;;
2672;SDS011;1346;51.558;6.996;2022-10-03T16:38:03;5.07;;;1.33;;
2672;SDS011;1346;51.558;6.996;2022-10-03T16:40:35;3.33;;;1.00;;
2672;SDS011;1346;51.558;6.996;2022-10-03T16:43:03;10.93;;;1.37;;
2672;SDS011;1346;51.558;6.996;2022-10-03T16:45:34;4.40;;;1.30;;
2672;SDS011;1346;51.558;6.996;2022-10-03T16:48:10;2.40;;;1.30;;
2672;SDS011;1346;51.558;6.996;2022-10-03T16:51:01;2.40;;;1.63;;
2672;SDS011;1346;51.558;6.996;2022-10-03T16:53:29;4.17;;;1.90;;
2672;SDS011;1346;51.558;6.996;2022-10-03T16:56:02;3.70;;;2.10;;
2672;SDS011;1346;51.558;6.996;2022-10-03T16:58:33;5.20;;;2.77;;
2672;SDS011;1346;51.558;6.996;2022-10-03T17:01:06;9.77;;;2.93;;
2672;SDS011;1346;51.558;6.996;2022-10-03T17:03:39;10.63;;;4.30;;
2672;SDS011;1346;51.558;6.996;2022-10-03T17:06:13;5.43;;;4.50;;
2672;SDS011;1346;51.558;6.996;2022-10-03T17:08:48;7.63;;;4.97;;
2672;SDS011;1346;51.558;6.996;2022-10-03T17:11:20;8.30;;;4.40;;
2672;SDS011;1346;51.558;6.996;2022-10-03T17:13:51;10.13;;;4.83;;
2672;SDS011;1346;51.558;6.996;2022-10-03T17:16:23;5.73;;;3.40;;
2672;SDS011;1346;51.558;6.996;2022-10-03T17:19:10;11.63;;;4.20;;
2672;SDS011;1346;51.558;6.996;2022-10-03T17:21:45;7.90;;;3.83;;
2672;SDS011;1346;51.558;6.996;2022-10-03T17:24:20;7.70;;;3.70;;
2672;SDS011;1346;51.558;6.996;2022-10-03T17:27:00;7.30;;;3.40;;
2672;SDS011;1346;51.558;6.996;2022-10-03T17:29:33;7.30;;;3.50;;
2672;SDS011;1346;51.558;6.996;2022-10-03T17:32:08;11.00;;;4.10;;
2672;SDS011;1346;51.558;6.996;2022-10-03T17:34:44;7.50;;;4.20;;
2672;SDS011;1346;51.558;6.996;2022-10-03T17:37:24;9.87;;;4.30;;
2672;SDS011;1346;51.558;6.996;2022-10-03T17:40:30;9.17;;;4.37;;
2672;SDS011;1346;51.558;6.996;2022-10-03T17:43:17;6.10;;;4.77;;
2672;SDS011;1346;51.558;6.996;2022-10-03T17:45:57;9.47;;;4.23;;
2672;SDS011;1346;51.558;6.996;2022-10-03T17:48:33;14.37;;;5.13;;
2672;SDS011;1346;51.558;6.996;2022-10-03T17:51:17;10.37;;;4.87;;
2672;SDS011;1346;51.558;6.996;2022-10-03T17:53:55;7.20;;;4.43;;
2672;SDS011;1346;51.558;6.996;2022-10-03T17:56:26;8.47;;;5.10;;
2672;SDS011;1346;51.558;6.996;2022-10-03T17:58:59;12.17;;;7.47;;
2672;SDS011;1346;51.558;6.996;2022-10-03T18:01:34;14.10;;;8.90;;
2672;SDS011;1346;51.558;6.996;2022-10-03T18:04:09;14.27;;;10.63;;
2672;SDS011;1346;51.558;6.996;2022-10-03T18:06:46;16.73;;;10.80;;
2672;SDS011;1346;51.558;6.996;2022-10-03T18:09:22;16.97;;;10.67;;
2672;SDS011;1346;51.558;6.996;2022-10-03T18:11:57;27.13;;;11.67;;
2672;SDS011;1346;51.558;6.996;2022-10-03T18:14:40;18.00;;;12.70;;
2672;SDS011;1346;51.558;6.996;2022-10-03T18:17:46;17.37;;;12.47;;
2672;SDS011;1346;51.558;6.996;2022-10-03T18:20:30;18.33;;;11.60;;
2672;SDS011;1346;51.558;6.996;2022-10-03T18:23:15;17.50;;;11.60;;
2672;SDS011;1346;51.558;6.996;2022-10-03T18:25:55;17.77;;;12.50;;
2672;SDS011;1346;51.558;6.996;2022-10-03T18:28:31;17.63;;;11.70;;
2672;SDS011;1346;51.558;6.996;2022-10-03T18:31:03;16.93;;;11.00;;
2672;SDS011;1346;51.558;6.996;2022-10-03T18:33:39;17.77;;;11.60;;
2672;SDS011;1346;51.558;6.996;2022-10-03T18:36:14;17.93;;;11.20;;
2672;SDS011;1346;51.558;6.996;2022-10-03T18:38:47;15.73;;;11.70;;
2672;SDS011;1346;51.558;6.996;2022-10-03T18:41:16;17.73;;;11.47;;
2672;SDS011;1346;51.558;6.996;2022-10-03T18:43:44;15.80;;;10.70;;
2672;SDS011;1346;51.558;6.996;2022-10-03T18:46:19;15.43;;;10.50;;
2672;SDS011;1346;51.558;6.996;2022-10-03T18:48:57;15.13;;;9.93;;
2672;SDS011;1346;51.558;6.996;2022-10-03T18:51:31;16.00;;;10.07;;
2672;SDS011;1346;51.558;6.996;2022-10-03T18:54:03;20.60;;;9.80;;
2672;SDS011;1346;51.558;6.996;2022-10-03T18:56:44;22.10;;;11.33;;
2672;SDS011;1346;51.558;6.996;2022-10-03T18:59:27;16.60;;;11.10;;
2672;SDS011;1346;51.558;6.996;2022-10-03T19:02:10;18.20;;;12.20;;
2672;SDS011;1346;51.558;6.996;2022-10-03T19:04:48;17.53;;;11.30;;
2672;SDS011;1346;51.558;6.996;2022-10-03T19:07:21;14.70;;;10.90;;
2672;SDS011;1346;51.558;6.996;2022-10-03T19:12:49;13.73;;;10.70;;
2672;SDS011;1346;51.558;6.996;2022-10-03T19:15:20;16.00;;;10.50;;
2672;SDS011;1346;51.558;6.996;2022-10-03T19:18:06;16.77;;;10.70;;
2672;SDS011;1346;51.558;6.996;2022-10-03T19:20:46;19.17;;;11.90;;
2672;SDS011;1346;51.558;6.996;2022-10-03T19:23:17;20.83;;;15.17;;
2672;SDS011;1346;51.558;6.996;2022-10-03T19:25:51;26.00;;;15.13;;
2672;SDS011;1346;51.558;6.996;2022-10-03T19:28:22;21.60;;;15.73;;
2672;SDS011;1346;51.558;6.996;2022-10-03T19:30:58;28.43;;;17.97;;
2672;SDS011;1346;51.558;6.996;2022-10-03T19:33:32;30.93;;;20.30;;
2672;SDS011;1346;51.558;6.996;2022-10-03T19:36:10;32.43;;;21.40;;
2672;SDS011;1346;51.558;6.996;2022-10-03T19:38:42;29.87;;;19.80;;